sensor_id;sensor_type;location;lat;lon;timestamp;P1;durP1;ratioP1;P2;durP2;ratioP2
7875;SDS011;69649;53.712;9.680;2023-04-30T00:01:01;7.00;;;3.73;;
7875;SDS011;69649;53.712;9.680;2023-04-30T00:03:28;9.57;;;4.10;;
7875;SDS011;69649;53.712;9.680;2023-04-30T00:05:54;7.53;;;4.10;;
7875;SDS011;69649;53.712;9.680;2023-04-30T00:08:19;7.43;;;3.97;;
7875;SDS011;69649;53.712;9.680;2023-04-30T00:10:45;8.23;;;3.57;;
7875;SDS011;69649;53.712;9.680;2023-04-30T00:13:11;8.40;;;4.67;;
7875;SDS011;69649;53.712;9.680;2023-04-30T00:15:38;9.93;;;4.40;;
7875;SDS011;69649;53.712;9.680;2023-04-30T00:18:05;10.80;;;4.30;;
7875;SDS011;69649;53.712;9.680;2023-04-30T00:20:32;12.37;;;4.60;;
7875;SDS011;69649;53.712;9.680;2023-04-30T00:23:19;6.73;;;3.83;;
7875;SDS011;69649;53.712;9.680;2023-04-30T00:25:44;8.77;;;5.40;;
7875;SDS011;69649;53.712;9.680;2023-04-30T00:28:10;6.97;;;4.47;;
7875;SDS011;69649;53.712;9.680;2023-04-30T00:30:36;6.63;;;4.07;;
7875;SDS011;69649;53.712;9.680;2023-04-30T00:33:02;5.77;;;4.10;;
7875;SDS011;69649;53.712;9.680;2023-04-30T00:35:27;7.77;;;3.97;;
7875;SDS011;69649;53.712;9.680;2023-04-30T00:37:54;8.07;;;4.70;;
7875;SDS011;69649;53.712;9.680;2023-04-30T00:40:19;10.90;;;4.87;;
7875;SDS011;69649;53.712;9.680;2023-04-30T00:42:45;6.47;;;3.87;;
7875;SDS011;69649;53.712;9.680;2023-04-30T00:45:13;7.00;;;4.33;;
7875;SDS011;69649;53.712;9.680;2023-04-30T00:47:39;9.97;;;4.00;;
7875;SDS011;69649;53.712;9.680;2023-04-30T00:50:05;8.53;;;4.57;;
7875;SDS011;69649;53.712;9.680;2023-04-30T00:52:32;9.07;;;4.03;;
7875;SDS011;69649;53.712;9.680;2023-04-30T00:54:58;9.07;;;4.43;;
7875;SDS011;69649;53.712;9.680;2023-04-30T00:57:24;7.27;;;3.87;;
7875;SDS011;69649;53.712;9.680;2023-04-30T00:59:51;7.27;;;3.90;;
7875;SDS011;69649;53.712;9.680;2023-04-30T01:02:17;8.10;;;4.50;;
7875;SDS011;69649;53.712;9.680;2023-04-30T01:04:44;10.17;;;5.03;;
7875;SDS011;69649;53.712;9.680;2023-04-30T01:07:11;8.33;;;4.33;;
7875;SDS011;69649;53.712;9.680;2023-04-30T01:09:37;5.90;;;4.50;;
7875;SDS011;69649;53.712;9.680;2023-04-30T01:18:19;10.63;;;4.50;;
7875;SDS011;69649;53.712;9.680;2023-04-30T01:20:58;7.43;;;4.20;;
7875;SDS011;69649;53.712;9.680;2023-04-30T01:28:49;7.77;;;4.77;;
7875;SDS011;69649;53.712;9.680;2023-04-30T01:31:17;8.20;;;5.03;;
7875;SDS011;69649;53.712;9.680;2023-04-30T01:36:34;6.03;;;4.60;;
7875;SDS011;69649;53.712;9.680;2023-04-30T01:39:09;11.80;;;5.03;;
7875;SDS011;69649;53.712;9.680;2023-04-30T01:44:47;6.47;;;4.27;;
7875;SDS011;69649;53.712;9.680;2023-04-30T01:50:09;4.77;;;3.57;;
7875;SDS011;69649;53.712;9.680;2023-04-30T01:52:43;5.87;;;4.70;;
7875;SDS011;69649;53.712;9.680;2023-04-30T01:55:17;6.37;;;4.50;;
7875;SDS011;69649;53.712;9.680;2023-04-30T01:57:42;5.67;;;4.00;;
7875;SDS011;69649;53.712;9.680;2023-04-30T02:00:12;6.87;;;3.97;;
7875;SDS011;69649;53.712;9.680;2023-04-30T02:05:44;6.60;;;4.07;;
7875;SDS011;69649;53.712;9.680;2023-04-30T02:08:09;8.70;;;4.67;;
7875;SDS011;69649;53.712;9.680;2023-04-30T02:10:35;8.77;;;4.23;;
7875;SDS011;69649;53.712;9.680;2023-04-30T02:13:01;6.67;;;4.10;;
7875;SDS011;69649;53.712;9.680;2023-04-30T02:15:26;4.73;;;4.23;;
7875;SDS011;69649;53.712;9.680;2023-04-30T02:17:52;8.47;;;4.30;;
7875;SDS011;69649;53.712;9.680;2023-04-30T02:20:18;6.47;;;4.67;;
7875;SDS011;69649;53.712;9.680;2023-04-30T02:22:44;6.63;;;3.63;;
7875;SDS011;69649;53.712;9.680;2023-04-30T02:25:09;8.30;;;4.73;;
7875;SDS011;69649;53.712;9.680;2023-04-30T02:27:36;10.10;;;4.17;;
7875;SDS011;69649;53.712;9.680;2023-04-30T02:30:03;6.70;;;4.23;;
7875;SDS011;69649;53.712;9.680;2023-04-30T02:32:29;11.27;;;4.57;;
7875;SDS011;69649;53.712;9.680;2023-04-30T02:34:55;8.20;;;4.00;;
7875;SDS011;69649;53.712;9.680;2023-04-30T02:37:21;7.93;;;4.90;;
7875;SDS011;69649;53.712;9.680;2023-04-30T02:39:47;12.17;;;4.60;;
7875;SDS011;69649;53.712;9.680;2023-04-30T02:42:13;8.13;;;5.07;;
7875;SDS011;69649;53.712;9.680;2023-04-30T02:44:39;6.13;;;4.50;;
7875;SDS011;69649;53.712;9.680;2023-04-30T02:47:05;7.17;;;4.27;;
7875;SDS011;69649;53.712;9.680;2023-04-30T02:49:31;4.43;;;4.03;;
7875;SDS011;69649;53.712;9.680;2023-04-30T02:51:57;5.43;;;3.90;;
7875;SDS011;69649;53.712;9.680;2023-04-30T02:54:23;5.90;;;4.00;;
7875;SDS011;69649;53.712;9.680;2023-04-30T02:56:49;5.27;;;4.17;;
7875;SDS011;69649;53.712;9.680;2023-04-30T02:59:15;8.27;;;4.80;;
7875;SDS011;69649;53.712;9.680;2023-04-30T03:01:40;5.80;;;3.90;;
7875;SDS011;69649;53.712;9.680;2023-04-30T03:04:06;5.30;;;3.93;;
7875;SDS011;69649;53.712;9.680;2023-04-30T03:06:32;7.93;;;3.83;;
7875;SDS011;69649;53.712;9.680;2023-04-30T03:08:58;5.87;;;4.40;;
7875;SDS011;69649;53.712;9.680;2023-04-30T03:11:25;5.70;;;4.70;;
7875;SDS011;69649;53.712;9.680;2023-04-30T03:13:51;5.00;;;4.03;;
7875;SDS011;69649;53.712;9.680;2023-04-30T03:16:18;7.70;;;4.53;;
7875;SDS011;69649;53.712;9.680;2023-04-30T03:18:45;6.93;;;4.20;;
7875;SDS011;69649;53.712;9.680;2023-04-30T03:21:11;7.50;;;4.77;;
7875;SDS011;69649;53.712;9.680;2023-04-30T03:23:37;6.83;;;4.03;;
7875;SDS011;69649;53.712;9.680;2023-04-30T03:26:03;6.57;;;3.97;;
7875;SDS011;69649;53.712;9.680;2023-04-30T03:28:29;7.67;;;4.53;;
7875;SDS011;69649;53.712;9.680;2023-04-30T03:30:54;7.87;;;4.07;;
7875;SDS011;69649;53.712;9.680;2023-04-30T03:33:20;9.77;;;5.37;;
7875;SDS011;69649;53.712;9.680;2023-04-30T03:35:46;7.03;;;4.57;;
7875;SDS011;69649;53.712;9.680;2023-04-30T03:38:12;6.37;;;4.17;;
7875;SDS011;69649;53.712;9.680;2023-04-30T03:40:38;9.20;;;4.67;;
7875;SDS011;69649;53.712;9.680;2023-04-30T03:43:04;5.97;;;4.33;;
7875;SDS011;69649;53.712;9.680;2023-04-30T03:45:30;7.10;;;4.70;;
7875;SDS011;69649;53.712;9.680;2023-04-30T03:47:56;8.43;;;5.17;;
7875;SDS011;69649;53.712;9.680;2023-04-30T03:50:22;7.07;;;5.10;;
7875;SDS011;69649;53.712;9.680;2023-04-30T03:52:48;8.90;;;4.47;;
7875;SDS011;69649;53.712;9.680;2023-04-30T03:55:13;7.63;;;4.67;;
7875;SDS011;69649;53.712;9.680;2023-04-30T03:57:39;6.80;;;4.20;;
7875;SDS011;69649;53.712;9.680;2023-04-30T04:00:06;9.33;;;5.03;;
7875;SDS011;69649;53.712;9.680;2023-04-30T04:02:34;8.67;;;4.87;;
7875;SDS011;69649;53.712;9.680;2023-04-30T04:05:01;4.93;;;4.03;;
7875;SDS011;69649;53.712;9.680;2023-04-30T04:07:28;7.17;;;4.90;;
7875;SDS011;69649;53.712;9.680;2023-04-30T04:09:53;4.83;;;3.90;;
7875;SDS011;69649;53.712;9.680;2023-04-30T04:12:20;5.50;;;4.87;;
7875;SDS011;69649;53.712;9.680;2023-04-30T04:14:46;9.73;;;4.73;;
7875;SDS011;69649;53.712;9.680;2023-04-30T04:17:11;10.87;;;4.87;;
7875;SDS011;69649;53.712;9.680;2023-04-30T04:19:38;6.50;;;4.60;;
7875;SDS011;69649;53.712;9.680;2023-04-30T04:22:05;8.67;;;4.40;;
7875;SDS011;69649;53.712;9.680;2023-04-30T04:24:31;7.43;;;4.87;;
7875;SDS011;69649;53.712;9.680;2023-04-30T04:26:58;10.60;;;4.80;;
7875;SDS011;69649;53.712;9.680;2023-04-30T04:29:24;7.13;;;4.83;;
7875;SDS011;69649;53.712;9.680;2023-04-30T04:31:50;8.00;;;4.60;;
7875;SDS011;69649;53.712;9.680;2023-04-30T04:34:16;7.70;;;4.77;;
7875;SDS011;69649;53.712;9.680;2023-04-30T04:36:44;5.43;;;4.53;;
7875;SDS011;69649;53.712;9.680;2023-04-30T04:39:10;8.33;;;4.30;;
7875;SDS011;69649;53.712;9.680;2023-04-30T04:41:36;6.70;;;5.03;;
7875;SDS011;69649;53.712;9.680;2023-04-30T04:44:02;5.90;;;4.63;;
7875;SDS011;69649;53.712;9.680;2023-04-30T04:46:29;7.10;;;4.50;;
7875;SDS011;69649;53.712;9.680;2023-04-30T04:48:56;4.60;;;4.10;;
7875;SDS011;69649;53.712;9.680;2023-04-30T04:51:22;9.03;;;4.70;;
7875;SDS011;69649;53.712;9.680;2023-04-30T04:53:49;7.23;;;4.50;;
7875;SDS011;69649;53.712;9.680;2023-04-30T04:56:15;8.07;;;4.73;;
7875;SDS011;69649;53.712;9.680;2023-04-30T04:58:41;6.27;;;4.17;;
7875;SDS011;69649;53.712;9.680;2023-04-30T05:01:08;8.40;;;4.60;;
7875;SDS011;69649;53.712;9.680;2023-04-30T05:03:34;4.80;;;4.27;;
7875;SDS011;69649;53.712;9.680;2023-04-30T05:06:03;6.77;;;4.50;;
7875;SDS011;69649;53.712;9.680;2023-04-30T05:08:29;7.70;;;6.10;;
7875;SDS011;69649;53.712;9.680;2023-04-30T05:13:41;8.57;;;4.30;;
7875;SDS011;69649;53.712;9.680;2023-04-30T05:16:07;5.27;;;4.07;;
7875;SDS011;69649;53.712;9.680;2023-04-30T05:18:33;6.43;;;4.43;;
7875;SDS011;69649;53.712;9.680;2023-04-30T05:20:58;8.83;;;4.57;;
7875;SDS011;69649;53.712;9.680;2023-04-30T05:23:24;9.00;;;5.07;;
7875;SDS011;69649;53.712;9.680;2023-04-30T05:25:50;8.77;;;4.47;;
7875;SDS011;69649;53.712;9.680;2023-04-30T05:28:17;7.70;;;4.30;;
7875;SDS011;69649;53.712;9.680;2023-04-30T05:30:43;6.83;;;5.17;;
7875;SDS011;69649;53.712;9.680;2023-04-30T05:33:09;9.47;;;4.67;;
7875;SDS011;69649;53.712;9.680;2023-04-30T05:35:35;6.47;;;4.50;;
7875;SDS011;69649;53.712;9.680;2023-04-30T05:38:01;13.07;;;5.33;;
7875;SDS011;69649;53.712;9.680;2023-04-30T05:40:28;9.00;;;4.60;;
7875;SDS011;69649;53.712;9.680;2023-04-30T05:42:54;8.47;;;4.97;;
7875;SDS011;69649;53.712;9.680;2023-04-30T05:45:20;10.73;;;5.30;;
7875;SDS011;69649;53.712;9.680;2023-04-30T05:47:46;10.03;;;4.73;;
7875;SDS011;69649;53.712;9.680;2023-04-30T05:50:12;10.87;;;5.17;;
7875;SDS011;69649;53.712;9.680;2023-04-30T05:52:38;5.97;;;4.70;;
7875;SDS011;69649;53.712;9.680;2023-04-30T05:55:04;10.13;;;6.00;;
7875;SDS011;69649;53.712;9.680;2023-04-30T05:57:31;9.20;;;5.10;;
7875;SDS011;69649;53.712;9.680;2023-04-30T05:59:56;11.97;;;5.03;;
7875;SDS011;69649;53.712;9.680;2023-04-30T06:02:22;9.73;;;4.97;;
7875;SDS011;69649;53.712;9.680;2023-04-30T06:04:48;9.93;;;6.00;;
7875;SDS011;69649;53.712;9.680;2023-04-30T06:07:13;11.73;;;4.83;;
7875;SDS011;69649;53.712;9.680;2023-04-30T06:09:39;9.87;;;4.80;;
7875;SDS011;69649;53.712;9.680;2023-04-30T06:12:05;8.77;;;5.13;;
7875;SDS011;69649;53.712;9.680;2023-04-30T06:14:31;11.73;;;4.90;;
7875;SDS011;69649;53.712;9.680;2023-04-30T06:17:02;14.27;;;5.50;;
7875;SDS011;69649;53.712;9.680;2023-04-30T06:19:27;9.43;;;4.77;;
7875;SDS011;69649;53.712;9.680;2023-04-30T06:21:53;8.80;;;4.40;;
7875;SDS011;69649;53.712;9.680;2023-04-30T06:24:19;8.83;;;3.97;;
7875;SDS011;69649;53.712;9.680;2023-04-30T06:26:44;9.40;;;4.30;;
7875;SDS011;69649;53.712;9.680;2023-04-30T06:29:10;11.27;;;4.17;;
7875;SDS011;69649;53.712;9.680;2023-04-30T06:31:36;10.37;;;4.20;;
7875;SDS011;69649;53.712;9.680;2023-04-30T06:34:02;7.43;;;3.80;;
7875;SDS011;69649;53.712;9.680;2023-04-30T06:36:27;7.33;;;3.60;;
7875;SDS011;69649;53.712;9.680;2023-04-30T06:38:53;9.30;;;4.03;;
7875;SDS011;69649;53.712;9.680;2023-04-30T06:41:19;9.17;;;4.03;;
7875;SDS011;69649;53.712;9.680;2023-04-30T06:43:45;7.57;;;3.73;;
7875;SDS011;69649;53.712;9.680;2023-04-30T06:46:11;6.97;;;3.50;;
7875;SDS011;69649;53.712;9.680;2023-04-30T06:48:37;9.70;;;3.40;;
7875;SDS011;69649;53.712;9.680;2023-04-30T06:51:03;8.37;;;3.57;;
7875;SDS011;69649;53.712;9.680;2023-04-30T06:53:28;10.93;;;4.17;;
7875;SDS011;69649;53.712;9.680;2023-04-30T06:55:54;8.90;;;4.27;;
7875;SDS011;69649;53.712;9.680;2023-04-30T06:58:21;10.40;;;3.57;;
7875;SDS011;69649;53.712;9.680;2023-04-30T07:00:46;8.27;;;4.20;;
7875;SDS011;69649;53.712;9.680;2023-04-30T07:03:12;6.03;;;3.60;;
7875;SDS011;69649;53.712;9.680;2023-04-30T07:05:38;9.13;;;3.60;;
7875;SDS011;69649;53.712;9.680;2023-04-30T07:08:03;4.73;;;3.00;;
7875;SDS011;69649;53.712;9.680;2023-04-30T07:10:31;4.40;;;3.27;;
7875;SDS011;69649;53.712;9.680;2023-04-30T07:12:57;4.60;;;3.83;;
7875;SDS011;69649;53.712;9.680;2023-04-30T07:15:23;7.67;;;3.80;;
7875;SDS011;69649;53.712;9.680;2023-04-30T07:17:49;5.37;;;3.13;;
7875;SDS011;69649;53.712;9.680;2023-04-30T07:20:15;5.70;;;3.43;;
7875;SDS011;69649;53.712;9.680;2023-04-30T07:22:41;5.50;;;3.23;;
7875;SDS011;69649;53.712;9.680;2023-04-30T07:25:11;8.70;;;3.50;;
7875;SDS011;69649;53.712;9.680;2023-04-30T07:27:37;6.83;;;3.20;;
7875;SDS011;69649;53.712;9.680;2023-04-30T07:30:05;3.83;;;3.27;;
7875;SDS011;69649;53.712;9.680;2023-04-30T07:32:36;7.00;;;3.83;;
7875;SDS011;69649;53.712;9.680;2023-04-30T07:35:04;4.17;;;3.10;;
7875;SDS011;69649;53.712;9.680;2023-04-30T07:37:30;11.37;;;4.03;;
7875;SDS011;69649;53.712;9.680;2023-04-30T07:39:56;7.73;;;3.10;;
7875;SDS011;69649;53.712;9.680;2023-04-30T07:42:22;4.97;;;2.93;;
7875;SDS011;69649;53.712;9.680;2023-04-30T07:44:49;7.40;;;3.10;;
7875;SDS011;69649;53.712;9.680;2023-04-30T07:47:16;7.10;;;3.10;;
7875;SDS011;69649;53.712;9.680;2023-04-30T07:49:42;5.17;;;2.67;;
7875;SDS011;69649;53.712;9.680;2023-04-30T07:52:08;4.27;;;2.90;;
7875;SDS011;69649;53.712;9.680;2023-04-30T07:54:36;3.83;;;3.40;;
7875;SDS011;69649;53.712;9.680;2023-04-30T07:57:04;12.37;;;3.73;;
7875;SDS011;69649;53.712;9.680;2023-04-30T07:59:31;9.17;;;3.17;;
7875;SDS011;69649;53.712;9.680;2023-04-30T08:01:57;5.53;;;3.93;;
7875;SDS011;69649;53.712;9.680;2023-04-30T08:04:23;4.33;;;2.93;;
7875;SDS011;69649;53.712;9.680;2023-04-30T08:06:49;7.53;;;3.53;;
7875;SDS011;69649;53.712;9.680;2023-04-30T08:09:15;8.83;;;3.03;;
7875;SDS011;69649;53.712;9.680;2023-04-30T08:11:40;5.30;;;3.47;;
7875;SDS011;69649;53.712;9.680;2023-04-30T08:14:06;7.67;;;3.67;;
7875;SDS011;69649;53.712;9.680;2023-04-30T08:16:32;6.63;;;3.23;;
7875;SDS011;69649;53.712;9.680;2023-04-30T08:18:58;5.83;;;3.80;;
7875;SDS011;69649;53.712;9.680;2023-04-30T08:21:24;5.50;;;4.00;;
7875;SDS011;69649;53.712;9.680;2023-04-30T08:23:56;5.10;;;3.10;;
7875;SDS011;69649;53.712;9.680;2023-04-30T08:26:20;8.73;;;3.73;;
7875;SDS011;69649;53.712;9.680;2023-04-30T08:28:46;5.33;;;3.23;;
7875;SDS011;69649;53.712;9.680;2023-04-30T08:31:11;6.93;;;3.63;;
7875;SDS011;69649;53.712;9.680;2023-04-30T08:33:37;6.50;;;3.20;;
7875;SDS011;69649;53.712;9.680;2023-04-30T08:36:03;6.90;;;3.00;;
7875;SDS011;69649;53.712;9.680;2023-04-30T08:38:29;6.17;;;3.40;;
7875;SDS011;69649;53.712;9.680;2023-04-30T08:40:56;5.27;;;3.70;;
7875;SDS011;69649;53.712;9.680;2023-04-30T08:43:32;6.33;;;2.90;;
7875;SDS011;69649;53.712;9.680;2023-04-30T08:45:59;8.57;;;2.90;;
7875;SDS011;69649;53.712;9.680;2023-04-30T08:48:27;6.10;;;3.33;;
7875;SDS011;69649;53.712;9.680;2023-04-30T08:50:54;7.50;;;2.90;;
7875;SDS011;69649;53.712;9.680;2023-04-30T08:53:20;5.30;;;3.23;;
7875;SDS011;69649;53.712;9.680;2023-04-30T08:55:46;6.23;;;3.00;;
7875;SDS011;69649;53.712;9.680;2023-04-30T08:58:12;8.63;;;2.90;;
7875;SDS011;69649;53.712;9.680;2023-04-30T09:00:39;8.30;;;3.37;;
7875;SDS011;69649;53.712;9.680;2023-04-30T09:03:05;7.23;;;3.53;;
7875;SDS011;69649;53.712;9.680;2023-04-30T09:05:32;6.03;;;4.00;;
7875;SDS011;69649;53.712;9.680;2023-04-30T09:07:58;6.63;;;2.97;;
7875;SDS011;69649;53.712;9.680;2023-04-30T09:10:24;5.10;;;2.67;;
7875;SDS011;69649;53.712;9.680;2023-04-30T09:13:08;4.47;;;3.17;;
7875;SDS011;69649;53.712;9.680;2023-04-30T09:15:35;7.87;;;4.57;;
7875;SDS011;69649;53.712;9.680;2023-04-30T09:18:05;4.63;;;2.73;;
7875;SDS011;69649;53.712;9.680;2023-04-30T09:20:36;5.97;;;3.40;;
7875;SDS011;69649;53.712;9.680;2023-04-30T09:23:06;7.37;;;3.53;;
7875;SDS011;69649;53.712;9.680;2023-04-30T09:25:41;5.27;;;3.37;;
7875;SDS011;69649;53.712;9.680;2023-04-30T09:28:08;5.57;;;3.10;;
7875;SDS011;69649;53.712;9.680;2023-04-30T09:30:38;9.47;;;3.47;;
7875;SDS011;69649;53.712;9.680;2023-04-30T09:33:05;4.33;;;3.33;;
7875;SDS011;69649;53.712;9.680;2023-04-30T09:35:32;8.47;;;3.63;;
7875;SDS011;69649;53.712;9.680;2023-04-30T09:38:01;11.57;;;3.97;;
7875;SDS011;69649;53.712;9.680;2023-04-30T09:43:03;6.70;;;3.30;;
7875;SDS011;69649;53.712;9.680;2023-04-30T09:45:38;7.67;;;3.47;;
7875;SDS011;69649;53.712;9.680;2023-04-30T09:48:09;7.97;;;4.07;;
7875;SDS011;69649;53.712;9.680;2023-04-30T09:50:38;7.10;;;3.90;;
7875;SDS011;69649;53.712;9.680;2023-04-30T09:53:06;10.23;;;3.23;;
7875;SDS011;69649;53.712;9.680;2023-04-30T09:55:35;4.13;;;3.23;;
7875;SDS011;69649;53.712;9.680;2023-04-30T09:58:05;5.33;;;3.10;;
7875;SDS011;69649;53.712;9.680;2023-04-30T10:00:35;6.57;;;3.97;;
7875;SDS011;69649;53.712;9.680;2023-04-30T10:03:08;5.27;;;3.10;;
7875;SDS011;69649;53.712;9.680;2023-04-30T10:05:37;5.80;;;4.07;;
7875;SDS011;69649;53.712;9.680;2023-04-30T10:08:24;8.93;;;3.80;;
7875;SDS011;69649;53.712;9.680;2023-04-30T10:10:58;4.67;;;3.27;;
7875;SDS011;69649;53.712;9.680;2023-04-30T10:13:28;8.73;;;3.43;;
7875;SDS011;69649;53.712;9.680;2023-04-30T10:15:57;7.57;;;3.40;;
7875;SDS011;69649;53.712;9.680;2023-04-30T10:18:27;7.20;;;3.43;;
7875;SDS011;69649;53.712;9.680;2023-04-30T10:20:56;6.20;;;3.77;;
7875;SDS011;69649;53.712;9.680;2023-04-30T10:23:26;5.63;;;2.90;;
7875;SDS011;69649;53.712;9.680;2023-04-30T10:25:54;5.47;;;3.50;;
7875;SDS011;69649;53.712;9.680;2023-04-30T10:28:22;6.50;;;3.53;;
7875;SDS011;69649;53.712;9.680;2023-04-30T10:30:48;7.33;;;3.90;;
7875;SDS011;69649;53.712;9.680;2023-04-30T10:33:30;6.60;;;3.77;;
7875;SDS011;69649;53.712;9.680;2023-04-30T10:36:17;5.43;;;3.00;;
7875;SDS011;69649;53.712;9.680;2023-04-30T10:38:46;5.67;;;3.33;;
7875;SDS011;69649;53.712;9.680;2023-04-30T10:41:13;13.33;;;5.77;;
7875;SDS011;69649;53.712;9.680;2023-04-30T10:43:39;6.10;;;3.70;;
7875;SDS011;69649;53.712;9.680;2023-04-30T10:46:05;4.30;;;3.30;;
7875;SDS011;69649;53.712;9.680;2023-04-30T10:48:33;7.53;;;3.30;;
7875;SDS011;69649;53.712;9.680;2023-04-30T10:51:00;5.50;;;3.40;;
7875;SDS011;69649;53.712;9.680;2023-04-30T10:53:29;6.83;;;3.73;;
7875;SDS011;69649;53.712;9.680;2023-04-30T10:55:57;7.07;;;3.33;;
7875;SDS011;69649;53.712;9.680;2023-04-30T10:58:25;5.77;;;3.73;;
7875;SDS011;69649;53.712;9.680;2023-04-30T11:03:33;7.27;;;2.90;;
7875;SDS011;69649;53.712;9.680;2023-04-30T11:06:00;6.23;;;3.40;;
7875;SDS011;69649;53.712;9.680;2023-04-30T11:08:36;6.80;;;3.37;;
7875;SDS011;69649;53.712;9.680;2023-04-30T11:11:03;8.33;;;3.40;;
7875;SDS011;69649;53.712;9.680;2023-04-30T11:13:39;3.93;;;2.70;;
7875;SDS011;69649;53.712;9.680;2023-04-30T11:16:09;5.97;;;2.90;;
7875;SDS011;69649;53.712;9.680;2023-04-30T11:18:45;5.53;;;3.40;;
7875;SDS011;69649;53.712;9.680;2023-04-30T11:21:12;6.37;;;3.20;;
7875;SDS011;69649;53.712;9.680;2023-04-30T11:23:41;5.43;;;3.80;;
7875;SDS011;69649;53.712;9.680;2023-04-30T11:26:09;9.03;;;2.90;;
7875;SDS011;69649;53.712;9.680;2023-04-30T11:28:36;4.77;;;3.40;;
7875;SDS011;69649;53.712;9.680;2023-04-30T11:31:02;6.83;;;2.90;;
7875;SDS011;69649;53.712;9.680;2023-04-30T11:33:30;9.63;;;3.50;;
7875;SDS011;69649;53.712;9.680;2023-04-30T11:35:58;8.67;;;4.03;;
7875;SDS011;69649;53.712;9.680;2023-04-30T11:38:28;5.17;;;3.20;;
7875;SDS011;69649;53.712;9.680;2023-04-30T11:40:56;6.73;;;3.00;;
7875;SDS011;69649;53.712;9.680;2023-04-30T11:43:23;7.27;;;3.30;;
7875;SDS011;69649;53.712;9.680;2023-04-30T11:45:58;5.53;;;4.07;;
7875;SDS011;69649;53.712;9.680;2023-04-30T11:48:29;11.17;;;3.87;;
7875;SDS011;69649;53.712;9.680;2023-04-30T11:50:57;4.83;;;3.80;;
7875;SDS011;69649;53.712;9.680;2023-04-30T11:53:27;4.60;;;3.07;;
7875;SDS011;69649;53.712;9.680;2023-04-30T11:55:53;7.63;;;3.63;;
7875;SDS011;69649;53.712;9.680;2023-04-30T11:58:20;9.77;;;4.50;;
7875;SDS011;69649;53.712;9.680;2023-04-30T12:00:46;7.83;;;4.57;;
7875;SDS011;69649;53.712;9.680;2023-04-30T12:06:02;8.83;;;4.10;;
7875;SDS011;69649;53.712;9.680;2023-04-30T12:08:28;6.13;;;4.33;;
7875;SDS011;69649;53.712;9.680;2023-04-30T12:10:54;5.27;;;4.80;;
7875;SDS011;69649;53.712;9.680;2023-04-30T12:13:20;10.10;;;5.10;;
7875;SDS011;69649;53.712;9.680;2023-04-30T12:15:56;6.27;;;3.67;;
7875;SDS011;69649;53.712;9.680;2023-04-30T12:18:24;6.57;;;3.60;;
7875;SDS011;69649;53.712;9.680;2023-04-30T12:20:51;5.50;;;4.20;;
7875;SDS011;69649;53.712;9.680;2023-04-30T12:23:17;5.33;;;3.83;;
7875;SDS011;69649;53.712;9.680;2023-04-30T12:25:44;5.53;;;4.00;;
7875;SDS011;69649;53.712;9.680;2023-04-30T12:28:10;9.60;;;4.73;;
7875;SDS011;69649;53.712;9.680;2023-04-30T12:30:36;6.53;;;3.80;;
7875;SDS011;69649;53.712;9.680;2023-04-30T12:33:02;5.77;;;4.10;;
7875;SDS011;69649;53.712;9.680;2023-04-30T12:35:28;9.67;;;3.63;;
7875;SDS011;69649;53.712;9.680;2023-04-30T12:38:05;8.43;;;3.87;;
7875;SDS011;69649;53.712;9.680;2023-04-30T12:40:32;6.27;;;3.93;;
7875;SDS011;69649;53.712;9.680;2023-04-30T12:43:03;11.13;;;4.93;;
7875;SDS011;69649;53.712;9.680;2023-04-30T12:48:17;7.17;;;4.77;;
7875;SDS011;69649;53.712;9.680;2023-04-30T12:50:54;6.93;;;3.80;;
7875;SDS011;69649;53.712;9.680;2023-04-30T12:53:25;7.67;;;3.87;;
7875;SDS011;69649;53.712;9.680;2023-04-30T12:58:41;5.87;;;3.93;;
7875;SDS011;69649;53.712;9.680;2023-04-30T13:01:10;5.40;;;4.27;;
7875;SDS011;69649;53.712;9.680;2023-04-30T13:03:37;7.10;;;3.70;;
7875;SDS011;69649;53.712;9.680;2023-04-30T13:06:03;6.87;;;4.77;;
7875;SDS011;69649;53.712;9.680;2023-04-30T13:08:31;8.50;;;4.10;;
7875;SDS011;69649;53.712;9.680;2023-04-30T13:10:57;7.33;;;4.60;;
7875;SDS011;69649;53.712;9.680;2023-04-30T13:13:23;9.70;;;3.97;;
7875;SDS011;69649;53.712;9.680;2023-04-30T13:15:48;8.40;;;4.27;;
7875;SDS011;69649;53.712;9.680;2023-04-30T13:18:14;7.57;;;4.50;;
7875;SDS011;69649;53.712;9.680;2023-04-30T13:20:40;6.57;;;4.17;;
7875;SDS011;69649;53.712;9.680;2023-04-30T13:23:08;6.40;;;3.40;;
7875;SDS011;69649;53.712;9.680;2023-04-30T13:25:36;4.53;;;3.70;;
7875;SDS011;69649;53.712;9.680;2023-04-30T13:28:03;7.70;;;3.77;;
7875;SDS011;69649;53.712;9.680;2023-04-30T13:30:29;5.73;;;3.60;;
7875;SDS011;69649;53.712;9.680;2023-04-30T13:32:55;9.30;;;3.63;;
7875;SDS011;69649;53.712;9.680;2023-04-30T13:35:21;7.03;;;3.67;;
7875;SDS011;69649;53.712;9.680;2023-04-30T13:37:47;4.20;;;3.50;;
7875;SDS011;69649;53.712;9.680;2023-04-30T13:40:15;5.37;;;3.30;;
7875;SDS011;69649;53.712;9.680;2023-04-30T13:42:41;5.07;;;3.33;;
7875;SDS011;69649;53.712;9.680;2023-04-30T13:45:10;6.00;;;3.33;;
7875;SDS011;69649;53.712;9.680;2023-04-30T13:47:36;8.13;;;3.80;;
7875;SDS011;69649;53.712;9.680;2023-04-30T13:50:03;5.50;;;3.60;;
7875;SDS011;69649;53.712;9.680;2023-04-30T13:52:30;9.70;;;3.87;;
7875;SDS011;69649;53.712;9.680;2023-04-30T13:54:56;6.90;;;3.67;;
7875;SDS011;69649;53.712;9.680;2023-04-30T13:57:22;4.93;;;2.97;;
7875;SDS011;69649;53.712;9.680;2023-04-30T13:59:49;7.67;;;4.50;;
7875;SDS011;69649;53.712;9.680;2023-04-30T14:02:15;5.77;;;3.60;;
7875;SDS011;69649;53.712;9.680;2023-04-30T14:04:41;9.83;;;4.20;;
7875;SDS011;69649;53.712;9.680;2023-04-30T14:07:07;6.80;;;3.87;;
7875;SDS011;69649;53.712;9.680;2023-04-30T14:09:34;6.03;;;3.90;;
7875;SDS011;69649;53.712;9.680;2023-04-30T14:12:00;8.20;;;3.77;;
7875;SDS011;69649;53.712;9.680;2023-04-30T14:14:26;8.50;;;3.93;;
7875;SDS011;69649;53.712;9.680;2023-04-30T14:16:52;7.87;;;4.17;;
7875;SDS011;69649;53.712;9.680;2023-04-30T14:19:19;6.03;;;3.50;;
7875;SDS011;69649;53.712;9.680;2023-04-30T14:21:47;7.30;;;3.90;;
7875;SDS011;69649;53.712;9.680;2023-04-30T14:24:13;8.47;;;4.10;;
7875;SDS011;69649;53.712;9.680;2023-04-30T14:26:43;6.20;;;4.10;;
7875;SDS011;69649;53.712;9.680;2023-04-30T14:29:12;7.60;;;3.90;;
7875;SDS011;69649;53.712;9.680;2023-04-30T14:31:38;7.77;;;3.80;;
7875;SDS011;69649;53.712;9.680;2023-04-30T14:34:04;8.50;;;3.80;;
7875;SDS011;69649;53.712;9.680;2023-04-30T14:36:29;6.57;;;3.70;;
7875;SDS011;69649;53.712;9.680;2023-04-30T14:38:55;5.93;;;4.03;;
7875;SDS011;69649;53.712;9.680;2023-04-30T14:41:21;5.63;;;3.70;;
7875;SDS011;69649;53.712;9.680;2023-04-30T14:43:47;8.50;;;3.43;;
7875;SDS011;69649;53.712;9.680;2023-04-30T14:46:12;5.83;;;3.70;;
7875;SDS011;69649;53.712;9.680;2023-04-30T14:48:38;7.13;;;3.23;;
7875;SDS011;69649;53.712;9.680;2023-04-30T14:51:05;6.70;;;3.17;;
7875;SDS011;69649;53.712;9.680;2023-04-30T14:53:31;6.12;;;2.95;;
7875;SDS011;69649;53.712;9.680;2023-04-30T14:55:57;4.00;;;2.72;;
7875;SDS011;69649;53.712;9.680;2023-04-30T14:58:23;4.60;;;3.17;;
7875;SDS011;69649;53.712;9.680;2023-04-30T15:00:49;7.62;;;3.27;;
7875;SDS011;69649;53.712;9.680;2023-04-30T15:03:15;6.45;;;3.10;;
7875;SDS011;69649;53.712;9.680;2023-04-30T15:05:41;5.95;;;2.52;;
7875;SDS011;69649;53.712;9.680;2023-04-30T15:08:07;4.42;;;2.27;;
7875;SDS011;69649;53.712;9.680;2023-04-30T15:10:33;6.12;;;3.20;;
7875;SDS011;69649;53.712;9.680;2023-04-30T15:13:01;6.17;;;3.83;;
7875;SDS011;69649;53.712;9.680;2023-04-30T15:15:27;5.45;;;3.20;;
7875;SDS011;69649;53.712;9.680;2023-04-30T15:17:55;6.67;;;3.37;;
7875;SDS011;69649;53.712;9.680;2023-04-30T15:20:21;6.37;;;3.20;;
7875;SDS011;69649;53.712;9.680;2023-04-30T15:22:48;6.87;;;3.27;;
7875;SDS011;69649;53.712;9.680;2023-04-30T15:25:15;5.92;;;2.98;;
7875;SDS011;69649;53.712;9.680;2023-04-30T15:27:42;7.92;;;3.50;;
7875;SDS011;69649;53.712;9.680;2023-04-30T15:30:08;6.80;;;2.95;;
7875;SDS011;69649;53.712;9.680;2023-04-30T15:32:34;6.95;;;3.87;;
7875;SDS011;69649;53.712;9.680;2023-04-30T15:35:00;5.50;;;3.27;;
7875;SDS011;69649;53.712;9.680;2023-04-30T15:37:26;6.10;;;3.25;;
7875;SDS011;69649;53.712;9.680;2023-04-30T15:39:52;7.78;;;3.60;;